Time;durP1;ratioP1;P1;durP2;ratioP2;P2;SDS_P1;SDS_P2;PMS_P1;PMS_P2;Temp;Humidity;BMP_temperature;BMP_pressure;BME280_temperature;BME280_humidity;BME280_pressure;Samples;Min_cycle;Max_cycle;Signal;HPM_P1;HPM_P2
2022/06/08 00:01:51;;;;;;;10.27;1.73;;;14.70;99.90;;;;;;5041054;28;20021;-55
2022/06/08 00:04:22;;;;;;;10.95;2.53;;;14.70;99.90;;;;;;5063053;28;20086;-56
2022/06/08 00:06:48;;;;;;;6.75;2.45;;;14.80;99.90;;;;;;5053044;28;20056;-57
2022/06/08 00:09:14;;;;;;;7.75;2.70;;;14.80;99.90;;;;;;5068215;28;20032;-57
2022/06/08 00:11:40;;;;;;;7.93;2.28;;;14.80;99.90;;;;;;5056957;28;20029;-56
2022/06/08 00:14:06;;;;;;;9.65;2.67;;;14.70;99.90;;;;;;5058118;28;20037;-56
2022/06/08 00:16:31;;;;;;;8.65;1.95;;;14.70;99.90;;;;;;5063061;28;20079;-55
2022/06/08 00:18:57;;;;;;;11.23;2.53;;;14.60;99.90;;;;;;5057110;28;20497;-56
2022/06/08 00:21:23;;;;;;;11.45;2.78;;;14.70;99.90;;;;;;5063598;28;20036;-56
2022/06/08 00:23:49;;;;;;;10.90;2.60;;;14.60;99.90;;;;;;5061473;28;20029;-57
2022/06/08 00:26:15;;;;;;;10.85;2.78;;;14.60;99.90;;;;;;5062939;28;20028;-57
2022/06/08 00:28:41;;;;;;;7.93;3.30;;;14.60;99.90;;;;;;5055361;28;20431;-56
2022/06/08 00:31:07;;;;;;;7.15;2.90;;;14.60;99.90;;;;;;5056881;28;20028;-56
2022/06/08 00:33:32;;;;;;;6.57;2.88;;;14.50;99.90;;;;;;5052631;28;20231;-56
2022/06/08 00:35:58;;;;;;;7.65;3.25;;;14.50;99.90;;;;;;5055693;28;20029;-57
2022/06/08 00:38:24;;;;;;;8.05;2.88;;;14.50;99.90;;;;;;5059408;28;20059;-56
2022/06/08 00:41:17;;;;;;;6.38;2.35;;;14.50;99.90;;;;;;5051491;28;20508;-56
2022/06/08 00:43:43;;;;;;;6.22;2.20;;;14.50;99.90;;;;;;5054279;28;20036;-56
2022/06/08 00:46:10;;;;;;;7.30;2.35;;;14.50;99.90;;;;;;5057414;28;20036;-56
2022/06/08 00:48:41;;;;;;;6.20;2.90;;;14.50;99.90;;;;;;5045272;28;20025;-56
2022/06/08 00:51:07;;;;;;;8.63;2.35;;;14.60;99.90;;;;;;5052774;28;20484;-57
2022/06/08 00:53:53;;;;;;;3.28;2.33;;;14.60;99.90;;;;;;5055739;28;20028;-58
2022/06/08 00:56:24;;;;;;;3.30;2.65;;;14.50;99.90;;;;;;5055969;28;20579;-59
2022/06/08 00:58:51;;;;;;;5.10;2.47;;;14.50;99.90;;;;;;5048209;28;20083;-58
2022/06/08 01:01:17;;;;;;;3.72;2.50;;;14.50;99.90;;;;;;5063562;28;20122;-58
2022/06/08 01:03:43;;;;;;;4.00;2.33;;;14.50;99.90;;;;;;5056236;28;20040;-58
2022/06/08 01:06:19;;;;;;;2.10;1.88;;;14.50;99.90;;;;;;5063554;28;20393;-58
2022/06/08 01:08:48;;;;;;;5.22;2.10;;;14.50;99.90;;;;;;5058041;28;20078;-58
2022/06/08 01:11:38;;;;;;;3.92;1.90;;;14.50;99.90;;;;;;5059372;28;20021;-58
2022/06/08 01:14:10;;;;;;;6.93;1.95;;;14.50;99.90;;;;;;5039164;28;20089;-58
2022/06/08 01:16:38;;;;;;;3.10;1.73;;;14.50;99.90;;;;;;5061896;28;20079;-58
2022/06/08 01:19:06;;;;;;;2.00;1.50;;;14.40;99.90;;;;;;5057375;28;20059;-59
2022/06/08 01:21:31;;;;;;;3.15;1.35;;;14.40;99.90;;;;;;5062396;28;20083;-59
2022/06/08 01:24:01;;;;;;;2.67;1.42;;;14.40;99.90;;;;;;5056498;28;20033;-58
2022/06/08 01:26:33;;;;;;;2.80;1.35;;;14.40;99.90;;;;;;5062798;28;20218;-59
2022/06/08 01:29:13;;;;;;;2.35;1.40;;;14.40;99.90;;;;;;5056250;28;20032;-59
2022/06/08 01:31:44;;;;;;;4.00;1.88;;;14.30;99.90;;;;;;5066081;28;20077;-59
2022/06/08 01:34:44;;;;;;;5.20;1.85;;;14.40;99.90;;;;;;5058617;28;20033;-59
2022/06/08 01:37:54;;;;;;;5.20;1.50;;;14.40;99.90;;;;;;5052509;28;20120;-58
2022/06/08 01:40:19;;;;;;;5.97;2.25;;;14.40;99.90;;;;;;5045070;28;20554;-59
2022/06/08 01:42:57;;;;;;;4.15;1.70;;;14.40;99.90;;;;;;5054331;28;20029;-58
2022/06/08 01:45:29;;;;;;;3.15;2.00;;;14.40;99.90;;;;;;5050874;28;20065;-58
2022/06/08 01:48:00;;;;;;;4.53;1.80;;;14.30;99.90;;;;;;5050570;28;20090;-58
2022/06/08 01:50:50;;;;;;;3.15;2.35;;;14.40;99.90;;;;;;5051619;28;20400;-59
2022/06/08 01:53:45;;;;;;;4.65;1.65;;;14.40;99.90;;;;;;5046503;28;20441;-58
2022/06/08 01:56:52;;;;;;;3.08;1.30;;;14.40;99.90;;;;;;5052395;28;20526;-58
2022/06/08 01:59:40;;;;;;;3.05;1.50;;;14.40;99.90;;;;;;5055191;28;20047;-58
2022/06/08 02:02:31;;;;;;;3.30;2.10;;;14.40;99.90;;;;;;5050419;28;20021;-57
2022/06/08 02:05:09;;;;;;;7.55;1.88;;;14.40;99.90;;;;;;5061032;28;20100;-57
2022/06/08 02:08:07;;;;;;;6.68;2.22;;;14.40;99.90;;;;;;5063119;28;20040;-57
2022/06/08 02:10:42;;;;;;;4.28;2.00;;;14.50;99.90;;;;;;5049051;28;20394;-58
2022/06/08 02:13:25;;;;;;;2.53;1.73;;;14.50;99.90;;;;;;5055354;28;20041;-57
2022/06/08 02:15:56;;;;;;;4.13;1.75;;;14.50;99.90;;;;;;5043687;28;20119;-58
2022/06/08 02:18:30;;;;;;;3.65;1.90;;;14.50;99.90;;;;;;5039054;28;20386;-57
2022/06/08 02:20:58;;;;;;;6.25;2.25;;;14.50;99.90;;;;;;5049144;28;20071;-57
2022/06/08 02:23:41;;;;;;;5.60;2.08;;;14.40;99.90;;;;;;5038066;28;20057;-58
2022/06/08 02:26:17;;;;;;;7.35;2.40;;;14.50;99.90;;;;;;5041585;28;20037;-58
2022/06/08 02:28:52;;;;;;;5.55;2.97;;;14.40;99.90;;;;;;5061626;28;20055;-58
2022/06/08 02:31:26;;;;;;;6.07;2.45;;;14.40;99.90;;;;;;5039339;28;20033;-56
2022/06/08 02:37:13;;;;;;;;;;;14.40;99.90;;;;;;5051223;28;20040;-57
2022/06/08 02:39:43;;;;;;;6.35;3.10;;;14.40;99.90;;;;;;5060509;28;19917;-57
2022/06/08 02:42:15;;;;;;;6.22;3.67;;;14.40;99.90;;;;;;5065453;28;20044;-58
2022/06/08 02:44:43;;;;;;;;;;;14.40;99.90;;;;;;5060673;28;20025;-58
2022/06/08 02:47:37;;;;;;;12.43;3.20;;;14.40;99.90;;;;;;5062740;28;19995;-57
2022/06/08 02:50:06;;;;;;;11.18;3.20;;;14.40;99.90;;;;;;5039516;28;20121;-58
2022/06/08 02:52:32;;;;;;;10.23;3.42;;;14.40;99.90;;;;;;5049777;28;20507;-58
2022/06/08 02:54:58;;;;;;;9.70;3.35;;;14.40;99.90;;;;;;5054412;28;20021;-58
2022/06/08 02:57:27;;;;;;;8.93;2.85;;;14.40;99.90;;;;;;5060928;28;20032;-57
2022/06/08 03:00:07;;;;;;;10.65;3.45;;;14.40;99.90;;;;;;5057948;28;20044;-57
2022/06/08 03:02:39;;;;;;;8.15;3.83;;;14.50;99.90;;;;;;5053379;28;20041;-57
2022/06/08 03:05:49;;;;;;;12.73;3.35;;;14.40;99.90;;;;;;5057672;28;20052;-58
2022/06/08 03:08:29;;;;;;;14.10;2.65;;;14.40;99.90;;;;;;5017323;28;20033;-58
2022/06/08 03:10:59;;;;;;;6.05;2.60;;;14.50;99.90;;;;;;5007749;28;20030;-56
2022/06/08 03:13:42;;;;;;;7.50;2.83;;;14.50;99.90;;;;;;5022933;28;20054;-58
2022/06/08 03:16:09;;;;;;;9.32;2.70;;;14.50;99.90;;;;;;5010114;28;20455;-58
2022/06/08 03:18:35;;;;;;;6.53;2.05;;;14.50;99.90;;;;;;5023153;28;20029;-58
2022/06/08 03:21:03;;;;;;;5.95;2.13;;;14.50;99.90;;;;;;5008358;28;20087;-56
2022/06/08 03:23:30;;;;;;;6.25;2.55;;;14.50;99.90;;;;;;5022532;28;20513;-57
2022/06/08 03:25:56;;;;;;;6.38;1.98;;;14.50;99.90;;;;;;5018609;28;20145;-56
2022/06/08 03:28:22;;;;;;;7.93;2.40;;;14.50;99.90;;;;;;5019158;28;20108;-59
2022/06/08 03:30:48;;;;;;;3.20;1.90;;;14.50;99.90;;;;;;5012730;28;20025;-58
2022/06/08 03:33:14;;;;;;;3.08;1.20;;;14.50;99.90;;;;;;5008521;28;20046;-58
2022/06/08 03:35:40;;;;;;;2.85;1.10;;;14.50;99.90;;;;;;5009749;28;20025;-58
2022/06/08 03:38:08;;;;;;;2.08;1.40;;;14.50;99.90;;;;;;5019864;28;20119;-58
2022/06/08 03:40:34;;;;;;;4.53;1.27;;;14.50;99.90;;;;;;5059785;28;20035;-57
2022/06/08 03:43:00;;;;;;;4.53;1.30;;;14.50;99.90;;;;;;5046219;22;20054;-58
2022/06/08 03:45:28;;;;;;;3.10;1.30;;;14.50;99.90;;;;;;5017495;28;20043;-58
2022/06/08 03:47:54;;;;;;;3.65;1.30;;;14.50;99.90;;;;;;5012938;28;20030;-58
2022/06/08 03:50:28;;;;;;;3.20;1.35;;;14.50;99.90;;;;;;5011882;28;20168;-57
2022/06/08 03:53:17;;;;;;;4.53;1.63;;;14.50;99.90;;;;;;5012536;28;20026;-57
2022/06/08 03:55:47;;;;;;;2.97;1.52;;;14.60;99.90;;;;;;5023491;28;20037;-58
2022/06/08 03:58:13;;;;;;;2.72;1.02;;;14.60;99.90;;;;;;5014152;28;20573;-58
2022/06/08 04:00:41;;;;;;;4.38;1.38;;;14.60;99.90;;;;;;5013455;28;20037;-58
2022/06/08 04:03:09;;;;;;;6.75;1.13;;;14.60;99.90;;;;;;5015328;28;20609;-58
2022/06/08 04:05:36;;;;;;;2.90;1.08;;;14.60;99.90;;;;;;5013961;28;20033;-59
2022/06/08 04:08:01;;;;;;;2.65;1.02;;;14.60;99.90;;;;;;5017562;28;20076;-59
2022/06/08 04:10:27;;;;;;;2.97;1.30;;;14.60;99.90;;;;;;5014966;28;20061;-58
2022/06/08 04:12:54;;;;;;;5.65;1.75;;;14.60;99.90;;;;;;5019913;28;20056;-58
2022/06/08 04:18:04;;;;;;;2.60;1.00;;;14.70;99.90;;;;;;5013257;28;20501;-59
2022/06/08 04:20:30;;;;;;;5.03;1.80;;;14.70;99.90;;;;;;5027844;28;20073;-58
2022/06/08 04:22:55;;;;;;;4.55;1.42;;;14.70;99.90;;;;;;5023735;28;20116;-58
2022/06/08 04:25:21;;;;;;;6.22;2.10;;;14.70;99.90;;;;;;5024724;28;20025;-58
2022/06/08 04:27:47;;;;;;;5.13;2.30;;;14.70;99.90;;;;;;5028097;28;20163;-59
2022/06/08 04:30:13;;;;;;;7.63;2.53;;;14.70;99.90;;;;;;5025740;28;20392;-58
2022/06/08 04:32:39;;;;;;;4.82;2.88;;;14.70;99.90;;;;;;5023414;28;20099;-58
2022/06/08 04:35:05;;;;;;;12.60;3.67;;;14.70;99.90;;;;;;5018943;28;20032;-58
2022/06/08 04:37:31;;;;;;;12.23;3.40;;;14.60;99.90;;;;;;5021616;28;20022;-58
2022/06/08 04:39:56;;;;;;;7.97;2.63;;;14.70;99.90;;;;;;5026818;28;20041;-59
2022/06/08 04:42:22;;;;;;;11.30;3.35;;;14.60;99.90;;;;;;5021180;28;20050;-58
2022/06/08 04:44:48;;;;;;;10.38;3.40;;;14.70;99.90;;;;;;5010989;28;20084;-59
2022/06/08 04:47:14;;;;;;;8.27;2.60;;;14.80;99.90;;;;;;5016794;28;20056;-58
2022/06/08 04:49:39;;;;;;;9.40;3.30;;;14.80;99.90;;;;;;5010804;28;20125;-58
2022/06/08 04:52:06;;;;;;;10.82;3.83;;;14.80;99.90;;;;;;5018711;28;20064;-58
2022/06/08 04:54:32;;;;;;;10.88;3.15;;;14.80;99.90;;;;;;5021287;28;20026;-58
2022/06/08 04:57:00;;;;;;;10.48;3.83;;;14.90;99.90;;;;;;5026295;28;20029;-59
2022/06/08 04:59:27;;;;;;;9.05;3.85;;;14.90;99.90;;;;;;5023462;28;20067;-58
2022/06/08 05:01:53;;;;;;;12.35;4.22;;;14.90;99.90;;;;;;5016350;28;20030;-58
2022/06/08 05:04:18;;;;;;;9.00;3.25;;;14.90;99.90;;;;;;5016586;28;20338;-58
2022/06/08 05:06:45;;;;;;;6.72;3.33;;;15.00;99.90;;;;;;5010533;28;20109;-58
2022/06/08 05:09:11;;;;;;;8.50;2.80;;;15.00;99.90;;;;;;5019335;28;20112;-58
2022/06/08 05:11:36;;;;;;;10.18;2.83;;;15.00;99.90;;;;;;5019867;28;20026;-59
2022/06/08 05:14:02;;;;;;;7.78;3.05;;;15.00;99.90;;;;;;5026247;28;20032;-58
2022/06/08 05:16:28;;;;;;;7.32;3.80;;;15.00;99.90;;;;;;5022590;28;20366;-59
2022/06/08 05:18:54;;;;;;;8.00;3.40;;;15.00;99.90;;;;;;5026775;28;20038;-58
2022/06/08 05:21:19;;;;;;;11.73;4.78;;;14.90;99.90;;;;;;5013865;28;20485;-56
2022/06/08 05:23:46;;;;;;;14.55;3.83;;;15.00;99.90;;;;;;5022382;28;20045;-57
2022/06/08 05:26:12;;;;;;;11.20;3.88;;;15.00;99.90;;;;;;5015826;28;20032;-58
2022/06/08 05:28:39;;;;;;;14.07;4.95;;;15.00;99.90;;;;;;5022900;28;20034;-58
2022/06/08 05:31:05;;;;;;;11.93;3.47;;;15.00;99.90;;;;;;5011752;28;20029;-57
2022/06/08 05:33:31;;;;;;;20.25;5.63;;;15.00;99.90;;;;;;5009820;28;20029;-58
2022/06/08 05:35:57;;;;;;;18.73;5.05;;;15.00;99.90;;;;;;5011656;28;20030;-58
2022/06/08 05:38:23;;;;;;;9.10;3.28;;;15.00;99.90;;;;;;5010880;28;20034;-58
2022/06/08 05:40:49;;;;;;;11.45;3.38;;;15.20;99.90;;;;;;5024030;28;20046;-58
2022/06/08 05:43:16;;;;;;;12.93;3.70;;;15.10;99.90;;;;;;5016284;28;20048;-57
2022/06/08 05:45:42;;;;;;;12.93;3.80;;;15.10;99.90;;;;;;5019084;28;20034;-57
2022/06/08 05:48:09;;;;;;;17.10;3.83;;;15.20;99.90;;;;;;5010572;28;20022;-57
2022/06/08 05:50:37;;;;;;;7.47;3.22;;;15.20;99.90;;;;;;5009328;28;20052;-57
2022/06/08 05:53:04;;;;;;;13.35;4.40;;;15.20;99.90;;;;;;5015876;28;20089;-57
2022/06/08 05:55:29;;;;;;;14.80;4.45;;;15.20;99.90;;;;;;5010685;28;20022;-57
2022/06/08 05:57:56;;;;;;;18.67;5.18;;;15.30;99.90;;;;;;5012085;28;20441;-57
2022/06/08 06:00:28;;;;;;;14.60;3.75;;;15.30;99.90;;;;;;5011718;28;20397;-57
2022/06/08 06:02:54;;;;;;;;;;;15.30;99.90;;;;;;5010729;28;20363;-58
2022/06/08 06:05:25;;;;;;;11.60;5.25;;;15.30;99.90;;;;;;5012238;28;19909;-58
2022/06/08 06:07:52;;;;;;;18.58;4.45;;;15.40;99.90;;;;;;5014989;28;20065;-57
2022/06/08 06:10:18;;;;;;;29.90;5.18;;;15.40;99.90;;;;;;5012439;28;20033;-57
2022/06/08 06:12:44;;;;;;;19.40;4.68;;;15.40;99.90;;;;;;5019079;28;20160;-57
2022/06/08 06:15:11;;;;;;;24.08;5.05;;;15.50;99.90;;;;;;5012003;28;20449;-58
2022/06/08 06:17:37;;;;;;;20.05;4.82;;;15.40;99.90;;;;;;5011405;28;20022;-57
2022/06/08 06:20:04;;;;;;;17.20;5.40;;;15.50;99.90;;;;;;5007907;28;20405;-58
2022/06/08 06:22:33;;;;;;;19.08;4.95;;;15.60;99.90;;;;;;5012100;28;20030;-57
2022/06/08 06:24:59;;;;;;;17.13;4.72;;;15.70;99.90;;;;;;5018501;28;20172;-58
2022/06/08 06:27:26;;;;;;;18.75;5.45;;;15.70;99.90;;;;;;5023389;28;20025;-58
2022/06/08 06:29:52;;;;;;;16.13;3.63;;;15.70;99.90;;;;;;5029731;28;20029;-57
2022/06/08 06:32:28;;;;;;;12.40;4.78;;;15.80;99.90;;;;;;5023822;28;20116;-57
2022/06/08 06:34:55;;;;;;;11.90;3.58;;;15.90;99.90;;;;;;5010287;28;20034;-57
2022/06/08 06:37:22;;;;;;;11.75;4.13;;;16.00;99.90;;;;;;5025035;28;20052;-59
2022/06/08 06:39:48;;;;;;;14.45;3.83;;;16.00;99.90;;;;;;5026369;28;20037;-58
2022/06/08 06:42:23;;;;;;;16.50;4.05;;;16.00;99.90;;;;;;5017970;28;20042;-57
2022/06/08 06:44:51;;;;;;;15.57;4.50;;;16.10;99.90;;;;;;5027703;28;20034;-58
2022/06/08 06:47:18;;;;;;;12.27;3.83;;;16.20;99.90;;;;;;5026876;28;20108;-57
2022/06/08 06:49:44;;;;;;;12.85;5.90;;;16.20;99.90;;;;;;5020992;28;20057;-58
2022/06/08 06:52:14;;;;;;;12.18;3.85;;;16.50;99.90;;;;;;5017768;28;20119;-57
2022/06/08 06:54:41;;;;;;;15.65;4.40;;;16.40;99.90;;;;;;5021450;28;20030;-58
2022/06/08 06:57:07;;;;;;;8.35;3.55;;;16.60;99.90;;;;;;5027851;28;20172;-57
2022/06/08 06:59:33;;;;;;;9.02;4.78;;;16.60;99.90;;;;;;5024325;28;20061;-57
2022/06/08 07:01:59;;;;;;;10.07;5.05;;;16.60;99.90;;;;;;5028321;28;20034;-57
2022/06/08 07:04:25;;;;;;;13.45;4.15;;;16.50;99.90;;;;;;5027119;28;20036;-57
2022/06/08 07:06:53;;;;;;;9.20;4.07;;;16.40;99.90;;;;;;5023062;28;20029;-57
2022/06/08 07:09:19;;;;;;;14.05;4.97;;;16.30;99.90;;;;;;5018490;28;20042;-58
2022/06/08 07:11:45;;;;;;;14.32;4.65;;;16.50;99.90;;;;;;5019900;28;20071;-58
2022/06/08 07:14:14;;;;;;;15.13;4.63;;;16.70;99.90;;;;;;5028161;28;20140;-57
2022/06/08 07:16:41;;;;;;;17.08;4.68;;;16.70;99.90;;;;;;5013138;28;20026;-57
2022/06/08 07:19:09;;;;;;;14.95;4.80;;;16.80;99.90;;;;;;5028819;28;20060;-57
2022/06/08 07:21:35;;;;;;;13.80;4.38;;;17.00;99.90;;;;;;5023509;28;20071;-58
2022/06/08 07:24:01;;;;;;;14.73;3.97;;;17.10;99.90;;;;;;5014154;28;20057;-57
2022/06/08 07:26:28;;;;;;;17.60;3.70;;;17.00;99.90;;;;;;5011865;28;20533;-58
2022/06/08 07:28:55;;;;;;;10.55;3.25;;;17.00;99.90;;;;;;5007767;28;20478;-57
2022/06/08 07:31:21;;;;;;;12.35;3.65;;;17.00;99.90;;;;;;5014450;28;20097;-56
2022/06/08 07:33:48;;;;;;;16.48;3.10;;;17.00;99.90;;;;;;5021005;28;20049;-57
2022/06/08 07:36:13;;;;;;;9.85;2.78;;;17.00;99.90;;;;;;5013539;28;20172;-58
2022/06/08 07:38:40;;;;;;;18.73;4.07;;;16.80;99.90;;;;;;5020816;28;20120;-58
2022/06/08 07:41:06;;;;;;;11.93;3.25;;;16.80;99.90;;;;;;5012927;28;20026;-57
2022/06/08 07:43:32;;;;;;;7.57;2.80;;;16.90;99.90;;;;;;5024048;28;20454;-58
2022/06/08 07:45:58;;;;;;;9.55;3.20;;;17.20;99.90;;;;;;5016822;28;20028;-58
2022/06/08 07:51:09;;;;;;;13.60;2.75;;;17.50;99.90;;;;;;5015332;28;20101;-57
2022/06/08 07:53:34;;;;;;;11.40;3.22;;;17.40;99.90;;;;;;5014940;28;20060;-57
2022/06/08 07:56:00;;;;;;;17.70;2.92;;;17.40;99.90;;;;;;5010456;28;20057;-58
2022/06/08 07:58:26;;;;;;;22.48;3.88;;;17.20;99.90;;;;;;5015501;28;20059;-57
2022/06/08 08:00:53;;;;;;;25.55;3.70;;;17.10;99.90;;;;;;5012277;28;20045;-57
2022/06/08 08:03:20;;;;;;;20.83;3.88;;;17.40;99.90;;;;;;5001572;28;20107;-57
2022/06/08 08:05:46;;;;;;;15.50;2.92;;;17.70;99.90;;;;;;5025205;28;20026;-57
2022/06/08 08:08:17;;;;;;;13.05;2.92;;;17.90;99.90;;;;;;5016287;28;20657;-56
2022/06/08 08:10:44;;;;;;;18.30;2.53;;;17.80;99.90;;;;;;5015855;28;20482;-56
2022/06/08 08:13:10;;;;;;;17.67;2.80;;;17.40;99.90;;;;;;5018091;28;20034;-57
2022/06/08 08:15:37;;;;;;;14.82;2.95;;;17.30;99.90;;;;;;5015323;28;20026;-58
2022/06/08 08:18:03;;;;;;;13.10;2.88;;;17.30;99.90;;;;;;5020011;28;20440;-58
2022/06/08 08:20:30;;;;;;;15.85;2.40;;;17.30;99.90;;;;;;5015641;28;20425;-57
2022/06/08 08:22:56;;;;;;;9.63;2.53;;;17.50;99.90;;;;;;5019466;28;20572;-56
2022/06/08 08:25:23;;;;;;;8.00;1.92;;;17.80;99.90;;;;;;5024284;28;20033;-58
2022/06/08 08:27:50;;;;;;;13.18;2.00;;;18.00;99.90;;;;;;5028273;28;20462;-58
2022/06/08 08:30:20;;;;;;;9.85;1.92;;;18.00;99.90;;;;;;5025060;28;20112;-57
2022/06/08 08:32:45;;;;;;;6.18;1.52;;;18.30;99.90;;;;;;5018836;28;20026;-57
2022/06/08 08:35:13;;;;;;;11.35;1.60;;;18.30;99.90;;;;;;5025499;28;20489;-57
2022/06/08 08:37:39;;;;;;;7.53;1.88;;;17.90;99.90;;;;;;5020168;28;20033;-57
2022/06/08 08:40:06;;;;;;;8.82;2.10;;;17.90;99.90;;;;;;5026406;28;20038;-57
2022/06/08 08:42:34;;;;;;;6.55;1.25;;;17.80;99.90;;;;;;5022472;28;20038;-58
2022/06/08 08:45:11;;;;;;;5.88;1.55;;;17.60;99.90;;;;;;5015006;28;20481;-58
2022/06/08 08:48:06;;;;;;;21.40;2.70;;;17.50;99.90;;;;;;5004265;28;20026;-58
2022/06/08 08:50:44;;;;;;;9.15;1.92;;;17.40;99.90;;;;;;5004117;28;20030;-58
2022/06/08 08:53:17;;;;;;;15.98;4.13;;;17.60;99.90;;;;;;5003332;28;20033;-57
2022/06/08 08:56:16;;;;;;;19.90;2.80;;;17.90;99.90;;;;;;5012522;28;20042;-58
2022/06/08 08:58:45;;;;;;;12.02;2.67;;;18.30;99.90;;;;;;5008059;28;20046;-57
2022/06/08 09:01:14;;;;;;;14.20;2.72;;;18.50;99.90;;;;;;5018448;28;20478;-57
2022/06/08 09:03:44;;;;;;;11.98;1.58;;;18.30;99.90;;;;;;5014795;28;20033;-57
2022/06/08 09:06:13;;;;;;;12.55;1.58;;;17.80;99.90;;;;;;5012953;28;20055;-59
2022/06/08 09:08:43;;;;;;;17.48;2.92;;;17.70;99.90;;;;;;5009874;28;20137;-56
2022/06/08 09:11:33;;;;;;;14.98;2.30;;;17.80;99.90;;;;;;5018829;28;20124;-57
2022/06/08 09:14:23;;;;;;;10.77;2.10;;;18.10;99.90;;;;;;5006283;28;20056;-57
2022/06/08 09:17:10;;;;;;;16.60;1.95;;;18.30;99.90;;;;;;5006483;28;20049;-56
2022/06/08 09:19:49;;;;;;;13.57;2.42;;;18.30;99.90;;;;;;5017431;28;20042;-57
2022/06/08 09:22:22;;;;;;;11.95;1.83;;;18.40;99.90;;;;;;5002530;28;20494;-56
2022/06/08 09:24:57;;;;;;;12.77;1.95;;;18.60;99.90;;;;;;4997929;28;20540;-57
2022/06/08 09:27:35;;;;;;;15.70;2.28;;;18.40;99.90;;;;;;5011518;28;20033;-57
2022/06/08 09:30:02;;;;;;;15.90;2.20;;;18.40;99.90;;;;;;5023141;28;20048;-56
2022/06/08 09:32:40;;;;;;;11.02;1.70;;;18.40;99.90;;;;;;5019165;28;20030;-56
2022/06/08 09:35:29;;;;;;;11.98;2.08;;;18.90;99.90;;;;;;5010522;28;20164;-56
2022/06/08 09:38:02;;;;;;;8.30;1.20;;;19.20;99.90;;;;;;5012421;28;20180;-57
2022/06/08 09:40:53;;;;;;;7.95;1.73;;;19.30;99.90;;;;;;5022022;28;20168;-58
2022/06/08 09:43:49;;;;;;;4.80;0.88;;;19.30;99.90;;;;;;5002534;28;20132;-58
2022/06/08 09:46:17;;;;;;;7.38;1.00;;;19.10;99.90;;;;;;5004527;28;20038;-57
2022/06/08 09:52:04;;;;;;;7.50;1.25;;;18.90;99.90;;;;;;5009029;28;20045;-56
2022/06/08 09:54:47;;;;;;;7.40;1.30;;;18.50;99.90;;;;;;5008780;28;20026;-56
2022/06/08 09:57:30;;;;;;;6.25;0.82;;;18.80;99.90;;;;;;5011564;28;21175;-58
2022/06/08 10:00:30;;;;;;;8.30;1.52;;;18.70;99.90;;;;;;4998496;28;20524;-55
2022/06/08 10:03:16;;;;;;;9.68;2.10;;;19.20;99.90;;;;;;5015769;28;20030;-57
2022/06/08 10:06:19;;;;;;;7.63;1.30;;;19.30;99.90;;;;;;5016073;28;20131;-58
2022/06/08 10:09:15;;;;;;;7.60;2.05;;;18.80;99.90;;;;;;5014647;28;20032;-57
2022/06/08 10:12:12;;;;;;;8.93;1.95;;;19.00;99.90;;;;;;5016264;28;20125;-57
2022/06/08 10:14:38;;;;;;;12.75;1.48;;;18.90;99.90;;;;;;5009010;28;20413;-57
2022/06/08 10:17:32;;;;;;;13.98;1.75;;;18.40;99.90;;;;;;5028356;28;20068;-58
2022/06/08 10:20:16;;;;;;;14.75;2.70;;;18.10;99.90;;;;;;5018129;28;20042;-56
2022/06/08 10:22:49;;;;;;;12.10;2.00;;;18.20;99.90;;;;;;5026508;28;20202;-58
2022/06/08 10:25:24;;;;;;;9.35;2.28;;;18.30;99.90;;;;;;5026069;28;20026;-57
2022/06/08 10:27:53;;;;;;;23.15;2.60;;;18.60;99.90;;;;;;5008935;28;20397;-57
2022/06/08 10:30:24;;;;;;;10.00;2.22;;;18.90;99.90;;;;;;5028642;28;20129;-57
2022/06/08 10:33:05;;;;;;;8.18;1.40;;;18.90;99.90;;;;;;5000825;28;20030;-58
2022/06/08 10:35:36;;;;;;;12.80;1.85;;;19.10;99.90;;;;;;5024240;28;20041;-57
2022/06/08 10:38:04;;;;;;;11.98;1.77;;;19.10;99.90;;;;;;5002021;28;20030;-57
2022/06/08 10:40:46;;;;;;;14.30;1.67;;;18.90;99.90;;;;;;5025129;28;20128;-56
2022/06/08 10:43:25;;;;;;;10.95;1.42;;;19.10;99.90;;;;;;5011895;28;20038;-58
2022/06/08 10:45:56;;;;;;;11.50;2.03;;;19.70;99.90;;;;;;5020454;28;20080;-58
2022/06/08 10:48:23;;;;;;;11.35;1.92;;;19.90;99.90;;;;;;5015153;28;20458;-58
2022/06/08 10:51:21;;;;;;;12.75;2.15;;;20.10;99.90;;;;;;5012633;28;20050;-57
2022/06/08 10:56:36;;;;;;;12.82;2.75;;;19.50;99.90;;;;;;5013152;28;20032;-56
2022/06/08 10:59:08;;;;;;;13.73;3.00;;;19.20;99.90;;;;;;5025925;28;20041;-56
2022/06/08 11:02:03;;;;;;;12.88;1.90;;;19.40;99.90;;;;;;5013921;28;20058;-57
2022/06/08 11:04:29;;;;;;;8.13;2.63;;;19.80;99.90;;;;;;5011191;28;20029;-59
2022/06/08 11:07:16;;;;;;;10.90;1.77;;;20.00;99.90;;;;;;5010588;28;20072;-57
2022/06/08 11:09:44;;;;;;;11.57;1.88;;;19.40;99.90;;;;;;5023732;28;20382;-57
2022/06/08 11:12:13;;;;;;;7.70;1.63;;;19.90;99.90;;;;;;5018915;28;20421;-58
2022/06/08 11:14:48;;;;;;;13.52;2.10;;;20.00;99.90;;;;;;5022949;28;20104;-57
2022/06/08 11:17:32;;;;;;;12.48;1.80;;;19.70;99.90;;;;;;5023150;28;20026;-56
2022/06/08 11:20:26;;;;;;;10.13;1.77;;;19.10;99.90;;;;;;5017765;28;20026;-57
2022/06/08 11:23:10;;;;;;;16.13;2.83;;;19.00;99.90;;;;;;5014518;28;20040;-59
2022/06/08 11:25:53;;;;;;;13.25;2.35;;;19.20;99.90;;;;;;5011380;28;20034;-57
2022/06/08 11:28:32;;;;;;;10.63;2.00;;;19.70;99.90;;;;;;5023361;28;20033;-57
2022/06/08 11:31:05;;;;;;;17.20;2.03;;;20.60;99.90;;;;;;5001935;28;20433;-57
2022/06/08 11:34:12;;;;;;;10.48;1.95;;;20.90;99.90;;;;;;5016836;28;20420;-56
2022/06/08 11:36:53;;;;;;;21.85;2.60;;;20.90;99.90;;;;;;4984454;28;20054;-57
2022/06/08 11:39:24;;;;;;;12.73;2.20;;;21.10;99.90;;;;;;4988809;28;20057;-61
2022/06/08 11:42:00;;;;;;;13.93;2.22;;;20.70;99.90;;;;;;4986600;28;20030;-57
2022/06/08 11:44:33;;;;;;;16.55;2.72;;;20.30;99.90;;;;;;4988673;28;20073;-58
2022/06/08 11:47:18;;;;;;;11.82;2.47;;;20.20;99.90;;;;;;4988273;28;20031;-57
2022/06/08 11:49:54;;;;;;;14.52;2.33;;;20.90;99.90;;;;;;4988756;28;20080;-56
2022/06/08 11:52:32;;;;;;;11.00;2.25;;;21.60;99.90;;;;;;4989660;28;20038;-58
2022/06/08 11:55:00;;;;;;;14.95;2.22;;;22.40;99.90;;;;;;4986763;28;20096;-57
2022/06/08 11:57:27;;;;;;;12.02;2.15;;;22.10;99.90;;;;;;4988969;28;20102;-58
2022/06/08 11:59:55;;;;;;;16.35;2.47;;;22.20;99.90;;;;;;4989073;28;20042;-57
2022/06/08 12:02:35;;;;;;;17.17;2.65;;;22.20;99.90;;;;;;4989462;28;20042;-57
2022/06/08 12:05:03;;;;;;;17.60;2.40;;;21.50;99.90;;;;;;4987702;28;20058;-58
2022/06/08 12:07:50;;;;;;;16.02;3.97;;;20.90;99.90;;;;;;4990520;28;20109;-57
2022/06/08 12:10:22;;;;;;;12.95;2.63;;;20.60;99.90;;;;;;5004616;28;20129;-57
2022/06/08 12:12:48;;;;;;;10.35;2.03;;;20.40;99.90;;;;;;5021230;28;20095;-57
2022/06/08 12:15:48;;;;;;;14.52;2.28;;;19.80;99.90;;;;;;5013677;28;20120;-57
2022/06/08 12:18:39;;;;;;;16.45;2.25;;;19.90;99.90;;;;;;5013873;28;20231;-56
2022/06/08 12:21:05;;;;;;;14.38;2.83;;;20.00;99.90;;;;;;5025232;28;20128;-57
2022/06/08 12:23:43;;;;;;;19.20;2.17;;;19.90;99.90;;;;;;5023945;28;20094;-57
2022/06/08 12:26:21;;;;;;;12.93;2.15;;;20.00;99.90;;;;;;5000692;28;20025;-57
2022/06/08 12:29:10;;;;;;;19.05;2.92;;;19.60;99.90;;;;;;5019149;28;20029;-57
2022/06/08 12:31:36;;;;;;;13.00;2.10;;;19.50;99.90;;;;;;5013321;28;20068;-58
2022/06/08 12:37:28;;;;;;;14.55;2.38;;;18.40;99.90;;;;;;5011036;28;20034;-57
2022/06/08 12:40:00;;;;;;;15.90;2.35;;;18.10;99.90;;;;;;5023932;28;20256;-57
2022/06/08 12:42:33;;;;;;;;;;;17.90;99.90;;;;;;5019107;28;20056;-57
2022/06/08 12:45:00;;;;;;;16.05;2.75;;;18.00;99.90;;;;;;5025210;28;19909;-57
2022/06/08 12:47:45;;;;;;;18.27;2.95;;;18.90;99.90;;;;;;5023274;28;20517;-57
2022/06/08 12:50:16;;;;;;;8.25;1.92;;;19.90;99.90;;;;;;4997514;28;20029;-57
2022/06/08 12:52:43;;;;;;;11.35;2.08;;;20.50;99.90;;;;;;5019613;28;20153;-57
2022/06/08 12:55:17;;;;;;;10.32;1.90;;;21.40;99.90;;;;;;4999155;28;20454;-57
2022/06/08 12:57:44;;;;;;;14.52;2.00;;;21.80;99.90;;;;;;5008215;28;20120;-57
2022/06/08 13:00:31;;;;;;;11.50;1.90;;;20.70;99.90;;;;;;5008400;28;20037;-58
2022/06/08 13:02:59;;;;;;;17.15;1.75;;;21.40;99.90;;;;;;4989274;28;20030;-57
2022/06/08 13:05:29;;;;;;;7.97;1.17;;;22.10;99.90;;;;;;5003577;28;20034;-56
2022/06/08 13:07:56;;;;;;;5.88;1.52;;;21.50;99.90;;;;;;5015138;28;20090;-56
2022/06/08 13:10:28;;;;;;;7.38;1.42;;;22.20;99.90;;;;;;5011223;28;20068;-58
2022/06/08 13:12:58;;;;;;;10.00;1.08;;;23.30;99.90;;;;;;5017090;28;20132;-56
2022/06/08 13:15:32;;;;;;;11.73;1.80;;;23.70;99.90;;;;;;5014118;28;20034;-58
2022/06/08 13:17:58;;;;;;;11.32;1.95;;;23.60;99.90;;;;;;5010405;28;20032;-57
2022/06/08 13:20:34;;;;;;;11.82;2.15;;;23.40;99.90;;;;;;5026744;28;20041;-57
2022/06/08 13:23:00;;;;;;;6.97;1.58;;;23.70;99.90;;;;;;5022520;28;20037;-57
2022/06/08 13:25:27;;;;;;;9.65;2.40;;;23.30;99.90;;;;;;5022694;28;20065;-57
2022/06/08 13:27:54;;;;;;;8.10;1.10;;;23.30;99.90;;;;;;5027769;28;20053;-57